Time;durP1;ratioP1;P1;durP2;ratioP2;P2;SDS_P1;SDS_P2;PMS_P1;PMS_P2;Temp;Humidity;BMP_temperature;BMP_pressure;BME280_temperature;BME280_humidity;BME280_pressure;Samples;Min_cycle;Max_cycle;Signal;HPM_P1;HPM_P2
2022/10/31 00:02:07;;;;;;;18.53;7.20;;;;;;;;;;5055721;28;20643;-83
2022/10/31 00:04:34;;;;;;;15.40;7.17;;;;;;;;;;5055487;28;20280;-84
2022/10/31 00:07:01;;;;;;;13.40;6.60;;;;;;;;;;5055105;28;20686;-84
2022/10/31 00:09:29;;;;;;;14.93;6.93;;;;;;;;;;5054986;28;20231;-84
2022/10/31 00:11:57;;;;;;;12.87;6.97;;;;;;;;;;5055174;28;20286;-84
2022/10/31 00:14:24;;;;;;;19.83;6.93;;;;;;;;;;5054791;28;20286;-83
2022/10/31 00:16:51;;;;;;;12.27;6.67;;;;;;;;;;5055514;28;20302;-83
2022/10/31 00:19:18;;;;;;;15.00;7.20;;;;;;;;;;5055782;28;20235;-85
2022/10/31 00:21:46;;;;;;;14.60;7.00;;;;;;;;;;5054883;28;20286;-85
2022/10/31 00:24:13;;;;;;;12.07;6.30;;;;;;;;;;5055293;28;20287;-85
2022/10/31 00:26:41;;;;;;;16.97;6.20;;;;;;;;;;5054971;28;20278;-84
2022/10/31 00:29:12;;;;;;;22.83;6.00;;;;;;;;;;5054251;28;20295;-85
2022/10/31 00:31:40;;;;;;;43.37;6.77;;;;;;;;;;5055359;28;20192;-85
2022/10/31 00:34:07;;;;;;;17.30;5.73;;;;;;;;;;5055215;28;20223;-85
2022/10/31 00:36:34;;;;;;;18.10;6.40;;;;;;;;;;5055258;28;20777;-85
2022/10/31 00:39:01;;;;;;;21.43;6.07;;;;;;;;;;5054014;28;20306;-82
2022/10/31 00:41:28;;;;;;;21.23;6.03;;;;;;;;;;5054954;28;20196;-85
2022/10/31 00:43:57;;;;;;;14.83;6.20;;;;;;;;;;5054224;28;20227;-85
2022/10/31 00:46:24;;;;;;;12.73;6.00;;;;;;;;;;5055373;28;20264;-85
2022/10/31 00:49:07;;;;;;;22.20;6.77;;;;;;;;;;5054561;28;20282;-85
2022/10/31 00:51:34;;;;;;;13.77;5.67;;;;;;;;;;5055217;28;20246;-85
2022/10/31 00:54:01;;;;;;;11.83;5.97;;;;;;;;;;5054548;28;20279;-84
2022/10/31 00:56:28;;;;;;;15.70;5.83;;;;;;;;;;5054988;28;20322;-85
2022/10/31 00:58:57;;;;;;;12.67;5.70;;;;;;;;;;5054464;28;20741;-84
2022/10/31 01:01:24;;;;;;;18.47;7.27;;;;;;;;;;5053297;28;20231;-83
2022/10/31 01:03:52;;;;;;;16.97;6.47;;;;;;;;;;5053874;28;20742;-83
2022/10/31 01:06:19;;;;;;;12.30;5.83;;;;;;;;;;5065164;28;20230;-83
2022/10/31 01:08:48;;;;;;;13.80;6.17;;;;;;;;;;5069212;28;20742;-84
2022/10/31 01:11:16;;;;;;;12.80;6.00;;;;;;;;;;5048119;28;20197;-83
2022/10/31 01:13:44;;;;;;;14.00;5.80;;;;;;;;;;5054461;28;20243;-83
2022/10/31 01:16:14;;;;;;;16.70;6.37;;;;;;;;;;5052283;28;20247;-84
2022/10/31 01:18:41;;;;;;;18.60;6.10;;;;;;;;;;5054492;28;20234;-83
2022/10/31 01:21:10;;;;;;;17.90;6.53;;;;;;;;;;5053554;28;20250;-85
2022/10/31 01:23:37;;;;;;;20.30;6.60;;;;;;;;;;5053629;28;20286;-82
2022/10/31 01:26:06;;;;;;;14.93;6.63;;;;;;;;;;5054785;28;20231;-85
2022/10/31 01:28:34;;;;;;;14.13;6.77;;;;;;;;;;5052865;28;20303;-85
2022/10/31 01:31:05;;;;;;;14.20;6.60;;;;;;;;;;5053990;28;20199;-84
2022/10/31 01:33:34;;;;;;;17.37;7.00;;;;;;;;;;5053786;28;20278;-85
2022/10/31 01:36:01;;;;;;;19.00;7.80;;;;;;;;;;5053809;28;20310;-83
2022/10/31 01:38:29;;;;;;;37.13;8.20;;;;;;;;;;5053442;28;20259;-84
2022/10/31 01:40:56;;;;;;;55.87;7.80;;;;;;;;;;5053321;28;20262;-84
2022/10/31 01:43:23;;;;;;;66.20;7.93;;;;;;;;;;5054325;28;20279;-85
2022/10/31 01:45:52;;;;;;;36.00;6.83;;;;;;;;;;5053305;28;20643;-85
2022/10/31 01:48:21;;;;;;;61.17;7.57;;;;;;;;;;5053768;28;20231;-83
2022/10/31 01:50:52;;;;;;;42.27;7.20;;;;;;;;;;5053885;28;20287;-85
2022/10/31 01:53:20;;;;;;;80.20;8.07;;;;;;;;;;5053977;28;20200;-83
2022/10/31 01:55:48;;;;;;;55.27;7.60;;;;;;;;;;5052955;28;20231;-85
2022/10/31 01:58:16;;;;;;;26.80;7.50;;;;;;;;;;5052875;28;20282;-85
2022/10/31 02:00:47;;;;;;;51.27;7.13;;;;;;;;;;5053327;28;20232;-84
2022/10/31 02:03:16;;;;;;;81.77;7.47;;;;;;;;;;5053012;28;20204;-84
2022/10/31 02:05:44;;;;;;;19.67;6.20;;;;;;;;;;5047369;28;20238;-84
2022/10/31 02:08:15;;;;;;;28.20;6.37;;;;;;;;;;5052991;28;20287;-84
2022/10/31 02:10:47;;;;;;;25.47;6.43;;;;;;;;;;5052979;28;20287;-84
2022/10/31 02:13:14;;;;;;;26.40;7.10;;;;;;;;;;5051895;28;20663;-85
2022/10/31 02:15:42;;;;;;;25.73;5.67;;;;;;;;;;5053079;28;20230;-85
2022/10/31 02:18:10;;;;;;;50.53;7.43;;;;;;;;;;5052278;28;20250;-85
2022/10/31 02:20:42;;;;;;;36.90;5.83;;;;;;;;;;5052717;28;20283;-84
2022/10/31 02:23:35;;;;;;;51.43;7.03;;;;;;;;;;5052968;28;20278;-84
2022/10/31 02:26:23;;;;;;;62.93;6.77;;;;;;;;;;5029152;28;20666;-84
2022/10/31 02:29:00;;;;;;;13.47;6.27;;;;;;;;;;5047207;28;20307;-84
2022/10/31 02:31:31;;;;;;;89.10;7.13;;;;;;;;;;5052117;28;20238;-84
2022/10/31 02:34:00;;;;;;;126.00;7.30;;;;;;;;;;5053082;28;20231;-84
2022/10/31 02:36:29;;;;;;;83.87;6.37;;;;;;;;;;5052637;28;20298;-84
2022/10/31 02:39:01;;;;;;;32.87;6.37;;;;;;;;;;5052025;28;20750;-84
2022/10/31 02:41:33;;;;;;;63.20;5.80;;;;;;;;;;5052569;28;20249;-85
2022/10/31 02:44:04;;;;;;;59.97;6.13;;;;;;;;;;5052903;28;20283;-84
2022/10/31 02:46:36;;;;;;;29.47;4.97;;;;;;;;;;5052019;28;20231;-84
2022/10/31 02:49:06;;;;;;;78.70;5.50;;;;;;;;;;5052959;28;20200;-84
2022/10/31 02:51:34;;;;;;;48.80;5.37;;;;;;;;;;5052155;28;20291;-84
2022/10/31 02:54:01;;;;;;;29.50;5.70;;;;;;;;;;5052304;28;20257;-84
2022/10/31 02:56:28;;;;;;;44.00;4.80;;;;;;;;;;5051992;28;20302;-84
2022/10/31 02:58:57;;;;;;;52.77;4.90;;;;;;;;;;5052845;28;20238;-85
2022/10/31 03:01:31;;;;;;;29.33;4.77;;;;;;;;;;5051613;28;20230;-85
2022/10/31 03:04:05;;;;;;;36.93;4.70;;;;;;;;;;5052006;28;20278;-85
2022/10/31 03:06:34;;;;;;;32.40;4.87;;;;;;;;;;5052532;28;20282;-84
2022/10/31 03:09:04;;;;;;;33.87;4.97;;;;;;;;;;5051727;28;20212;-84
2022/10/31 03:11:34;;;;;;;43.33;4.93;;;;;;;;;;5052079;28;20202;-84
2022/10/31 03:14:06;;;;;;;55.43;5.30;;;;;;;;;;5051522;28;20287;-84
2022/10/31 03:16:39;;;;;;;37.87;5.10;;;;;;;;;;5032782;28;20275;-84
2022/10/31 03:19:09;;;;;;;59.93;6.07;;;;;;;;;;5046030;28;20287;-84
2022/10/31 03:21:39;;;;;;;47.10;4.60;;;;;;;;;;5051462;28;20203;-85
2022/10/31 03:24:08;;;;;;;51.37;5.00;;;;;;;;;;5051477;28;20223;-85
2022/10/31 03:26:37;;;;;;;58.53;4.77;;;;;;;;;;5051474;28;20282;-84
2022/10/31 03:29:06;;;;;;;87.23;6.03;;;;;;;;;;5051612;28;20306;-85
2022/10/31 03:31:35;;;;;;;45.10;5.37;;;;;;;;;;5051101;28;20710;-84
2022/10/31 03:34:03;;;;;;;58.83;5.50;;;;;;;;;;5051686;28;20227;-84
2022/10/31 03:36:34;;;;;;;23.57;4.50;;;;;;;;;;5051504;28;20227;-84
2022/10/31 03:39:02;;;;;;;26.10;4.47;;;;;;;;;;5051479;28;20832;-85
2022/10/31 03:41:33;;;;;;;36.40;4.20;;;;;;;;;;5052213;28;20386;-84
2022/10/31 03:44:02;;;;;;;28.77;4.07;;;;;;;;;;5051991;28;20626;-85
2022/10/31 03:46:30;;;;;;;16.13;4.20;;;;;;;;;;5051598;28;20286;-84
2022/10/31 03:48:58;;;;;;;53.63;5.10;;;;;;;;;;5051817;28;20291;-84
2022/10/31 03:51:28;;;;;;;64.00;5.20;;;;;;;;;;5050618;28;20786;-83
2022/10/31 03:53:59;;;;;;;49.47;5.50;;;;;;;;;;5051522;28;20283;-84
2022/10/31 03:56:31;;;;;;;15.63;4.47;;;;;;;;;;5045095;28;20278;-84
2022/10/31 03:59:00;;;;;;;50.57;5.30;;;;;;;;;;5051384;28;20204;-85
2022/10/31 04:01:29;;;;;;;16.60;4.70;;;;;;;;;;5050792;28;20223;-84
2022/10/31 04:03:57;;;;;;;22.73;4.90;;;;;;;;;;5050925;28;20278;-84
2022/10/31 04:06:24;;;;;;;40.10;5.33;;;;;;;;;;5050964;28;20223;-84
2022/10/31 04:08:55;;;;;;;19.43;4.90;;;;;;;;;;5051120;28;20274;-84
2022/10/31 04:11:25;;;;;;;11.83;4.57;;;;;;;;;;5050947;28;20227;-84
2022/10/31 04:13:53;;;;;;;10.13;4.73;;;;;;;;;;5051198;28;20282;-84
2022/10/31 04:16:20;;;;;;;37.63;4.90;;;;;;;;;;5051770;28;20294;-84
2022/10/31 04:18:47;;;;;;;33.97;5.67;;;;;;;;;;5051046;28;20310;-84
2022/10/31 04:21:15;;;;;;;36.20;5.63;;;;;;;;;;5051511;28;20238;-84
2022/10/31 04:23:42;;;;;;;32.97;5.00;;;;;;;;;;5051637;28;20287;-84
2022/10/31 04:26:09;;;;;;;28.97;5.53;;;;;;;;;;5050112;28;21776;-84
2022/10/31 04:28:38;;;;;;;26.10;4.90;;;;;;;;;;5051146;28;20302;-84
2022/10/31 04:31:05;;;;;;;10.47;4.93;;;;;;;;;;5050127;28;20739;-84
2022/10/31 04:33:33;;;;;;;19.87;5.27;;;;;;;;;;5051150;28;20227;-84
2022/10/31 04:36:00;;;;;;;12.40;4.57;;;;;;;;;;5053080;28;20242;-84
2022/10/31 04:38:27;;;;;;;17.87;4.97;;;;;;;;;;5054306;28;20239;-84
2022/10/31 04:40:54;;;;;;;32.40;4.63;;;;;;;;;;5055289;28;20254;-84
2022/10/31 04:43:21;;;;;;;45.33;5.27;;;;;;;;;;5055050;28;20226;-84
2022/10/31 04:45:50;;;;;;;37.77;5.07;;;;;;;;;;5054678;28;20204;-84
2022/10/31 04:48:17;;;;;;;36.50;4.97;;;;;;;;;;5054244;28;20227;-84
2022/10/31 04:50:44;;;;;;;29.33;5.33;;;;;;;;;;5054396;28;20637;-85
2022/10/31 04:53:11;;;;;;;31.90;4.90;;;;;;;;;;5055448;28;20231;-84
2022/10/31 04:55:39;;;;;;;40.23;4.83;;;;;;;;;;5054683;28;20227;-84
2022/10/31 04:58:12;;;;;;;103.83;5.73;;;;;;;;;;5054344;28;20307;-84
2022/10/31 05:00:39;;;;;;;58.57;5.40;;;;;;;;;;5053351;28;20676;-84
2022/10/31 05:03:08;;;;;;;55.33;5.00;;;;;;;;;;5053776;28;20227;-84
2022/10/31 05:05:35;;;;;;;72.23;5.57;;;;;;;;;;5054051;28;20214;-83
2022/10/31 05:08:02;;;;;;;92.97;5.27;;;;;;;;;;5054531;28;20679;-84
2022/10/31 05:10:30;;;;;;;56.37;5.10;;;;;;;;;;5053717;28;20282;-84
2022/10/31 05:12:58;;;;;;;36.23;5.93;;;;;;;;;;5054551;28;20236;-85
2022/10/31 05:15:27;;;;;;;29.00;4.30;;;;;;;;;;5053708;28;20291;-85
2022/10/31 05:17:54;;;;;;;10.80;4.13;;;;;;;;;;5052790;28;20302;-84
2022/10/31 05:20:24;;;;;;;44.17;5.13;;;;;;;;;;5054965;28;20629;-84
2022/10/31 05:22:52;;;;;;;95.87;5.53;;;;;;;;;;5053923;28;20231;-84
2022/10/31 05:25:20;;;;;;;27.83;5.07;;;;;;;;;;5053272;28;20246;-84
2022/10/31 05:27:47;;;;;;;48.00;5.77;;;;;;;;;;5053458;28;20286;-84
2022/10/31 05:30:16;;;;;;;82.90;5.90;;;;;;;;;;5054034;28;20262;-84
2022/10/31 05:32:44;;;;;;;26.87;4.87;;;;;;;;;;5053516;28;20236;-84
2022/10/31 05:35:12;;;;;;;25.87;5.53;;;;;;;;;;5053328;28;20271;-84
2022/10/31 05:37:41;;;;;;;63.10;6.03;;;;;;;;;;5053578;28;20270;-84
2022/10/31 05:40:09;;;;;;;43.00;5.20;;;;;;;;;;5034284;28;20283;-84
2022/10/31 05:42:37;;;;;;;49.73;5.30;;;;;;;;;;5048152;28;20287;-84
2022/10/31 05:45:04;;;;;;;63.30;5.23;;;;;;;;;;5053841;28;20235;-84
2022/10/31 05:47:31;;;;;;;16.10;5.07;;;;;;;;;;5052433;28;20278;-85
2022/10/31 05:49:59;;;;;;;11.57;4.60;;;;;;;;;;5053962;28;20250;-83
2022/10/31 05:52:26;;;;;;;12.50;4.97;;;;;;;;;;5053836;28;20287;-84
2022/10/31 05:54:54;;;;;;;15.67;4.73;;;;;;;;;;5054367;28;20283;-85
2022/10/31 05:57:22;;;;;;;19.70;5.03;;;;;;;;;;5053167;28;20323;-84
2022/10/31 05:59:52;;;;;;;11.13;5.10;;;;;;;;;;5053896;28;20239;-84
2022/10/31 06:02:19;;;;;;;11.33;4.47;;;;;;;;;;5051978;28;20195;-85
2022/10/31 06:04:46;;;;;;;11.83;4.87;;;;;;;;;;5052307;28;20290;-84
2022/10/31 06:07:14;;;;;;;11.53;5.60;;;;;;;;;;5052385;28;20287;-85
2022/10/31 06:09:41;;;;;;;18.90;5.43;;;;;;;;;;5053380;28;20223;-85
2022/10/31 06:12:09;;;;;;;39.07;6.03;;;;;;;;;;5053387;28;20291;-84
2022/10/31 06:14:37;;;;;;;25.13;5.73;;;;;;;;;;5053414;28;20290;-85
2022/10/31 06:17:04;;;;;;;35.53;6.30;;;;;;;;;;5052773;28;20228;-84
2022/10/31 06:19:31;;;;;;;9.97;5.90;;;;;;;;;;5052681;28;20280;-84
2022/10/31 06:21:58;;;;;;;12.83;5.73;;;;;;;;;;5052856;28;20195;-84
2022/10/31 06:24:25;;;;;;;16.70;6.07;;;;;;;;;;5052355;28;20287;-84
2022/10/31 06:26:53;;;;;;;14.97;5.50;;;;;;;;;;5052911;28;20699;-84
2022/10/31 06:29:21;;;;;;;44.40;7.43;;;;;;;;;;5053180;28;20247;-84
2022/10/31 06:31:48;;;;;;;31.37;7.57;;;;;;;;;;5052037;28;20227;-84
2022/10/31 06:34:16;;;;;;;43.47;8.57;;;;;;;;;;5052757;28;20275;-84
2022/10/31 06:36:43;;;;;;;50.40;9.40;;;;;;;;;;5052688;28;20227;-85
2022/10/31 06:39:10;;;;;;;39.03;9.77;;;;;;;;;;5045063;28;21198;-84
2022/10/31 06:41:39;;;;;;;44.83;10.93;;;;;;;;;;5052693;28;20203;-84
2022/10/31 06:44:07;;;;;;;48.43;12.53;;;;;;;;;;5052899;28;20203;-84
2022/10/31 06:46:35;;;;;;;69.30;13.63;;;;;;;;;;5052205;28;20282;-84
2022/10/31 06:49:02;;;;;;;45.37;13.37;;;;;;;;;;5051352;28;20294;-84
2022/10/31 06:51:31;;;;;;;39.50;12.90;;;;;;;;;;5043807;28;20283;-84
2022/10/31 06:53:59;;;;;;;37.10;11.80;;;;;;;;;;5052357;28;20283;-84
2022/10/31 06:56:26;;;;;;;28.43;11.73;;;;;;;;;;5051789;28;20246;-84
2022/10/31 06:58:53;;;;;;;28.63;10.90;;;;;;;;;;5052405;28;20601;-85
2022/10/31 07:01:20;;;;;;;26.23;9.77;;;;;;;;;;5051591;28;20331;-85
2022/10/31 07:03:49;;;;;;;20.33;9.50;;;;;;;;;;5052150;28;20330;-84
2022/10/31 07:06:16;;;;;;;17.70;9.27;;;;;;;;;;5053041;28;20747;-84
2022/10/31 07:08:43;;;;;;;17.57;9.13;;;;;;;;;;5051871;28;20256;-84
2022/10/31 07:11:10;;;;;;;17.13;9.57;;;;;;;;;;5051730;28;20274;-84
2022/10/31 07:13:37;;;;;;;18.33;9.40;;;;;;;;;;5051589;28;20223;-85
2022/10/31 07:16:06;;;;;;;17.33;9.20;;;;;;;;;;5051694;28;20223;-84
2022/10/31 07:18:33;;;;;;;19.47;10.03;;;;;;;;;;5051523;28;20220;-84
2022/10/31 07:21:02;;;;;;;21.77;10.60;;;;;;;;;;5051476;28;20220;-84
2022/10/31 07:23:29;;;;;;;29.57;12.23;;;;;;;;;;5052127;28;20282;-84
2022/10/31 07:25:57;;;;;;;32.93;13.43;;;;;;;;;;5051946;28;20646;-84
2022/10/31 07:28:24;;;;;;;29.90;12.53;;;;;;;;;;5051253;28;20227;-84
2022/10/31 07:30:52;;;;;;;33.63;12.30;;;;;;;;;;5051346;28;20784;-84
2022/10/31 07:33:19;;;;;;;24.43;11.53;;;;;;;;;;5052087;28;20287;-84
2022/10/31 07:35:46;;;;;;;23.03;10.70;;;;;;;;;;5051647;28;20234;-84
2022/10/31 07:38:15;;;;;;;22.30;9.63;;;;;;;;;;5052492;28;20330;-84
2022/10/31 07:40:43;;;;;;;17.53;9.27;;;;;;;;;;5051418;28;20234;-84
2022/10/31 07:43:12;;;;;;;18.53;9.10;;;;;;;;;;5051514;28;20234;-84
2022/10/31 07:45:39;;;;;;;17.80;8.17;;;;;;;;;;5051588;28;20215;-84
2022/10/31 07:48:06;;;;;;;14.77;7.70;;;;;;;;;;5051059;28;20294;-83
2022/10/31 07:50:34;;;;;;;14.77;7.30;;;;;;;;;;5051835;28;20207;-84
2022/10/31 07:53:02;;;;;;;12.30;6.50;;;;;;;;;;5051371;28;20210;-85
2022/10/31 07:55:31;;;;;;;10.60;6.47;;;;;;;;;;5051945;28;20238;-86
2022/10/31 07:57:59;;;;;;;9.20;5.80;;;;;;;;;;5050672;28;20770;-84
2022/10/31 08:00:26;;;;;;;9.43;6.10;;;;;;;;;;5049579;28;20295;-85
2022/10/31 08:02:59;;;;;;;9.33;5.40;;;;;;;;;;5050279;28;20281;-85
2022/10/31 08:05:27;;;;;;;9.30;5.60;;;;;;;;;;5050427;28;20667;-85
2022/10/31 08:07:54;;;;;;;9.07;5.13;;;;;;;;;;5051072;28;20236;-85
2022/10/31 08:10:21;;;;;;;12.70;5.67;;;;;;;;;;5051654;28;20207;-85
2022/10/31 08:12:56;;;;;;;9.70;5.67;;;;;;;;;;5054421;28;20291;-85
2022/10/31 08:15:23;;;;;;;10.43;5.43;;;;;;;;;;5053786;28;20290;-85
2022/10/31 08:17:50;;;;;;;7.83;5.30;;;;;;;;;;5054548;28;20283;-84
2022/10/31 08:20:17;;;;;;;7.07;4.53;;;;;;;;;;5054933;28;20235;-86
2022/10/31 08:22:44;;;;;;;6.80;4.27;;;;;;;;;;5055223;28;20227;-85
2022/10/31 08:25:12;;;;;;;9.97;4.50;;;;;;;;;;5053881;28;20231;-85
2022/10/31 08:27:39;;;;;;;6.43;4.20;;;;;;;;;;5054055;28;20222;-85
2022/10/31 08:30:08;;;;;;;6.93;4.00;;;;;;;;;;5054239;28;20303;-85
2022/10/31 08:32:35;;;;;;;7.27;4.37;;;;;;;;;;5047377;28;20231;-85
2022/10/31 08:35:03;;;;;;;7.03;4.30;;;;;;;;;;5055193;28;20278;-85
2022/10/31 08:37:30;;;;;;;7.97;4.67;;;;;;;;;;5054259;28;20282;-85
2022/10/31 08:39:57;;;;;;;6.90;4.63;;;;;;;;;;5053764;28;20258;-85
2022/10/31 08:42:24;;;;;;;5.30;3.93;;;;;;;;;;5053863;28;20278;-84
2022/10/31 08:44:51;;;;;;;7.03;4.10;;;;;;;;;;5048829;28;20231;-84
2022/10/31 08:47:20;;;;;;;9.00;4.50;;;;;;;;;;5055001;28;20287;-84
2022/10/31 08:49:47;;;;;;;7.20;4.63;;;;;;;;;;5052782;28;20229;-85
2022/10/31 08:52:15;;;;;;;6.93;4.53;;;;;;;;;;5053949;28;20283;-85
2022/10/31 08:54:43;;;;;;;8.50;4.63;;;;;;;;;;5054852;28;20729;-84
2022/10/31 08:57:10;;;;;;;8.07;4.67;;;;;;;;;;5054346;28;20227;-85
2022/10/31 08:59:39;;;;;;;9.60;4.50;;;;;;;;;;5054377;28;20316;-85
2022/10/31 09:02:06;;;;;;;7.27;4.70;;;;;;;;;;5053362;28;20278;-84
2022/10/31 09:04:35;;;;;;;7.97;4.50;;;;;;;;;;5054348;28;20192;-84
2022/10/31 09:07:02;;;;;;;9.93;5.10;;;;;;;;;;5053026;28;20216;-85
2022/10/31 09:09:29;;;;;;;8.97;4.80;;;;;;;;;;5053347;28;20231;-84
2022/10/31 09:11:56;;;;;;;10.57;5.20;;;;;;;;;;5053536;28;20239;-84
2022/10/31 09:14:24;;;;;;;8.77;5.20;;;;;;;;;;5052395;28;20231;-85
2022/10/31 09:16:52;;;;;;;9.20;5.27;;;;;;;;;;5053670;28;20203;-84
2022/10/31 09:19:19;;;;;;;9.33;5.70;;;;;;;;;;5052084;28;20306;-84
2022/10/31 09:21:48;;;;;;;10.87;5.63;;;;;;;;;;5044293;28;20239;-86
2022/10/31 09:24:15;;;;;;;7.67;5.17;;;;;;;;;;5053043;28;20235;-83
2022/10/31 09:26:42;;;;;;;10.30;6.10;;;;;;;;;;5052503;28;20739;-84
2022/10/31 09:29:10;;;;;;;9.17;6.20;;;;;;;;;;5053548;28;20252;-84
2022/10/31 09:31:37;;;;;;;9.17;5.83;;;;;;;;;;5052692;28;20698;-85
2022/10/31 09:34:04;;;;;;;12.23;6.20;;;;;;;;;;5053607;28;20239;-82
2022/10/31 09:36:31;;;;;;;11.23;5.80;;;;;;;;;;5054539;28;20637;-85
2022/10/31 09:39:00;;;;;;;8.20;5.57;;;15.80;99.90;;;;;;5052508;28;20609;-84
2022/10/31 09:41:41;;;;;;;10.93;5.97;;;15.60;99.90;;;;;;5052653;28;20288;-85
2022/10/31 09:44:15;;;;;;;10.73;5.87;;;15.50;99.90;;;;;;5053706;28;20287;-87
2022/10/31 09:46:53;;;;;;;8.23;5.77;;;15.60;99.90;;;;;;5053990;28;20223;-85
2022/10/31 09:49:40;;;;;;;7.80;6.37;;;15.50;99.90;;;;;;5060786;28;20195;-85
2022/10/31 09:52:14;;;;;;;11.57;6.20;;;15.50;99.90;;;;;;5050737;28;20195;-85
2022/10/31 09:54:48;;;;;;;10.30;6.70;;;15.50;99.90;;;;;;5049254;28;20245;-87
2022/10/31 09:57:18;;;;;;;10.37;6.30;;;15.40;99.90;;;;;;5047813;28;21073;-84
2022/10/31 09:59:47;;;;;;;10.47;6.90;;;15.40;99.90;;;;;;5053432;28;20309;-84
2022/10/31 10:02:20;;;;;;;9.97;6.80;;;15.40;99.90;;;;;;5051812;28;20200;-84
2022/10/31 10:04:54;;;;;;;9.33;6.70;;;15.40;99.90;;;;;;5052468;28;20291;-83
2022/10/31 10:07:27;;;;;;;12.37;7.13;;;15.50;99.90;;;;;;5051930;28;20283;-84
2022/10/31 10:09:56;;;;;;;13.23;6.90;;;15.30;99.90;;;;;;5050743;28;20200;-88
2022/10/31 10:12:32;;;;;;;10.20;7.37;;;15.40;99.90;;;;;;5053146;28;20278;-84
2022/10/31 10:15:21;;;;;;;9.00;6.90;;;15.40;99.90;;;;;;5052428;28;20245;-84
2022/10/31 10:18:00;;;;;;;13.57;8.17;;;15.30;99.90;;;;;;5045012;28;20286;-84
2022/10/31 10:20:32;;;;;;;10.30;7.30;;;15.30;99.90;;;;;;5051927;28;20719;-87
2022/10/31 10:23:15;;;;;;;11.60;8.23;;;15.40;99.90;;;;;;5052379;28;20191;-86
2022/10/31 10:25:47;;;;;;;11.57;8.30;;;15.40;99.90;;;;;;5050995;28;20287;-86
2022/10/31 10:28:21;;;;;;;12.93;9.10;;;15.40;99.90;;;;;;5043268;28;20279;-86
2022/10/31 10:30:51;;;;;;;14.97;9.73;;;15.60;99.90;;;;;;5051955;28;20862;-85
2022/10/31 10:33:22;;;;;;;13.57;8.60;;;15.70;99.90;;;;;;5052017;28;20230;-83
2022/10/31 10:35:53;;;;;;;11.97;8.70;;;15.70;99.90;;;;;;5052614;28;20265;-84
2022/10/31 10:38:26;;;;;;;13.27;8.70;;;15.70;99.90;;;;;;5050590;28;20228;-85
2022/10/31 10:40:55;;;;;;;12.57;8.80;;;15.70;99.90;;;;;;5051813;28;20251;-85
2022/10/31 10:43:26;;;;;;;12.97;8.53;;;15.80;99.90;;;;;;5052672;28;20200;-85
2022/10/31 10:49:10;;;;;;;13.97;8.77;;;15.80;99.90;;;;;;5052354;28;20199;-83
2022/10/31 10:51:45;;;;;;;12.10;9.10;;;16.10;99.90;;;;;;5052326;28;20260;-85
2022/10/31 10:54:25;;;;;;;10.40;9.27;;;16.40;99.90;;;;;;5051200;28;20199;-83
2022/10/31 10:57:03;;;;;;;14.73;9.15;;;16.50;99.90;;;;;;5051513;28;20227;-83
2022/10/31 10:59:30;;;;;;;13.00;8.98;;;16.70;99.90;;;;;;5050184;28;20641;-82
2022/10/31 11:01:57;;;;;;;11.85;7.90;;;16.80;99.90;;;;;;5051443;28;20257;-84
2022/10/31 11:04:33;;;;;;;13.02;8.57;;;16.80;99.90;;;;;;5050972;28;20234;-83
2022/10/31 11:07:01;;;;;;;13.05;8.95;;;16.60;99.90;;;;;;5050945;28;20286;-83
2022/10/31 11:09:29;;;;;;;12.32;8.75;;;16.60;99.90;;;;;;5051435;28;20621;-83
2022/10/31 11:11:58;;;;;;;15.13;9.25;;;16.80;99.90;;;;;;5051237;28;20287;-83
2022/10/31 11:14:27;;;;;;;15.02;9.30;;;16.50;99.90;;;;;;5050537;28;20223;-83
2022/10/31 11:17:07;;;;;;;14.63;9.43;;;16.50;99.90;;;;;;5050791;28;20208;-83
2022/10/31 11:19:34;;;;;;;14.57;8.68;;;16.30;99.90;;;;;;5049824;28;20639;-83
2022/10/31 11:22:07;;;;;;;11.90;9.02;;;16.40;99.90;;;;;;5050520;28;20203;-83
2022/10/31 11:24:39;;;;;;;14.45;9.43;;;16.60;99.90;;;;;;5050541;28;20286;-83
2022/10/31 11:27:16;;;;;;;17.15;10.52;;;16.70;99.90;;;;;;5050317;28;20202;-83
2022/10/31 11:29:47;;;;;;;15.30;10.32;;;16.70;99.90;;;;;;5051589;28;20703;-83
2022/10/31 11:32:21;;;;;;;14.20;9.77;;;16.50;99.90;;;;;;5050509;28;20204;-83
2022/10/31 11:34:52;;;;;;;16.23;10.73;;;16.40;99.90;;;;;;5047250;28;20214;-83
2022/10/31 11:37:22;;;;;;;14.73;10.32;;;16.30;99.90;;;;;;5050394;28;20583;-80
2022/10/31 11:39:54;;;;;;;15.85;11.45;;;16.30;99.90;;;;;;5050735;28;20259;-84
2022/10/31 11:42:25;;;;;;;13.63;10.38;;;16.40;99.90;;;;;;5050276;28;21625;-84
2022/10/31 11:44:55;;;;;;;18.02;11.25;;;16.60;99.90;;;;;;5048612;28;20247;-86
2022/10/31 11:47:27;;;;;;;19.00;11.48;;;;;;;;;;5049435;28;20286;-86
2022/10/31 11:49:55;;;;;;;15.25;11.02;;;16.60;99.90;;;;;;5045568;28;20204;-83
2022/10/31 11:52:26;;;;;;;18.25;11.75;;;16.70;99.90;;;;;;5051411;28;20287;-85
2022/10/31 11:54:56;;;;;;;15.93;11.20;;;;;;;;;;5050783;28;20294;-85
2022/10/31 11:57:25;;;;;;;17.75;11.57;;;;;;;;;;5050339;28;20238;-84
2022/10/31 11:59:54;;;;;;;18.98;11.35;;;;;;;;;;5051080;28;20251;-84
2022/10/31 12:02:24;;;;;;;16.27;12.30;;;;;;;;;;5050190;28;20284;-84
2022/10/31 12:04:54;;;;;;;16.55;10.75;;;;;;;;;;5049945;28;20293;-85
2022/10/31 12:07:21;;;;;;;18.27;11.73;;;;;;;;;;5050527;28;20287;-84
2022/10/31 12:09:48;;;;;;;20.60;13.00;;;;;;;;;;5051253;28;20287;-84
2022/10/31 12:12:25;;;;;;;17.42;12.32;;;;;;;;;;5051887;28;20234;-85
2022/10/31 12:14:57;;;;;;;17.15;11.45;;;;;;;;;;5045216;28;20282;-84
2022/10/31 12:17:30;;;;;;;17.02;11.80;;;17.30;99.90;;;;;;5048848;28;20250;-84
2022/10/31 12:20:02;;;;;;;19.45;11.23;;;;;;;;;;5052771;28;20312;-84
2022/10/31 12:22:40;;;;;;;17.17;11.63;;;17.30;99.90;;;;;;5051854;28;20246;-83
2022/10/31 12:25:21;;;;;;;16.55;11.43;;;17.40;99.90;;;;;;5050152;28;20290;-83
2022/10/31 12:28:06;;;;;;;17.92;11.63;;;;;;;;;;5045644;28;20224;-86
2022/10/31 12:30:42;;;;;;;18.70;11.23;;;;;;;;;;5050886;28;20303;-84
2022/10/31 12:33:41;;;;;;;19.33;12.13;;;17.50;99.90;;;;;;5048024;28;20210;-86
2022/10/31 12:36:22;;;;;;;16.45;11.35;;;17.50;99.90;;;;;;5040221;28;20287;-87
2022/10/31 12:39:00;;;;;;;19.00;12.18;;;;;;;;;;5048811;28;20267;-85
2022/10/31 12:41:41;;;;;;;15.05;11.38;;;;;;;;;;5049196;28;20221;-84
2022/10/31 12:44:23;;;;;;;16.88;11.23;;;;;;;;;;5053110;28;20907;-84
2022/10/31 12:47:03;;;;;;;17.20;11.70;;;;;;;;;;5049041;28;20210;-84
2022/10/31 12:49:39;;;;;;;18.83;11.45;;;;;;;;;;5050374;28;20227;-84
2022/10/31 12:52:33;;;;;;;17.27;11.50;;;17.60;99.90;;;;;;5050721;28;20223;-84
2022/10/31 12:55:11;;;;;;;19.05;11.38;;;17.80;99.90;;;;;;5060575;28;20299;-84
2022/10/31 12:57:43;;;;;;;17.27;11.57;;;17.70;99.90;;;;;;5051726;28;20261;-84
2022/10/31 13:00:15;;;;;;;17.40;12.02;;;17.90;99.90;;;;;;5054428;28;20219;-84
2022/10/31 13:02:52;;;;;;;15.57;11.45;;;18.10;99.90;;;;;;5054136;28;20742;-84
2022/10/31 13:05:21;;;;;;;17.20;11.15;;;;;;;;;;5053295;28;20697;-84
2022/10/31 13:07:54;;;;;;;14.70;11.63;;;;;;;;;;5049204;28;20286;-83
2022/10/31 13:10:24;;;;;;;18.77;12.05;;;;;;;;;;5054069;28;20238;-83
2022/10/31 13:12:54;;;;;;;17.77;12.18;;;;;;;;;;5054040;28;20273;-84
2022/10/31 13:15:23;;;;;;;20.30;12.52;;;;;;;;;;5053588;28;20239;-84
2022/10/31 13:17:54;;;;;;;17.55;12.20;;;;;;;;;;5054018;28;20227;-84
2022/10/31 13:20:23;;;;;;;17.63;12.60;;;;;;;;;;5053823;28;20307;-84
2022/10/31 13:22:53;;;;;;;19.00;12.45;;;;;;;;;;5054323;28;20235;-84
2022/10/31 13:25:23;;;;;;;19.02;12.20;;;;;;;;;;5053239;28;20292;-84
2022/10/31 13:27:53;;;;;;;16.20;11.30;;;;;;;;;;5054088;28;20291;-84
2022/10/31 13:30:22;;;;;;;18.58;12.07;;;;;;;;;;5052821;28;20299;-84
2022/10/31 13:32:52;;;;;;;19.95;13.27;;;;;;;;;;5053275;28;20231;-84
2022/10/31 13:35:24;;;;;;;19.45;12.93;;;;;;;;;;5050008;28;20239;-83
2022/10/31 13:37:53;;;;;;;15.82;12.65;;;;;;;;;;5051580;28;20322;-84
2022/10/31 13:40:26;;;;;;;18.70;12.43;;;;;;;;;;5052088;28;20699;-84
2022/10/31 13:42:58;;;;;;;21.55;13.18;;;;;;;;;;5049199;28;20304;-85
2022/10/31 13:45:26;;;;;;;19.95;13.50;;;;;;;;;;5051855;28;20295;-84
2022/10/31 13:47:57;;;;;;;18.42;12.50;;;;;;;;;;5051905;28;20204;-82
2022/10/31 13:50:27;;;;;;;19.55;12.75;;;;;;;;;;5052067;28;20275;-88
2022/10/31 13:53:05;;;;;;;19.60;13.43;;;;;;;;;;5053837;28;20235;-88
2022/10/31 13:55:36;;;;;;;19.00;12.43;;;;;;;;;;5052640;28;20246;-84
2022/10/31 13:58:05;;;;;;;17.85;12.45;;;;;;;;;;5053082;28;20238;-80
2022/10/31 14:00:34;;;;;;;23.10;13.10;;;;;;;;;;5052384;28;20216;-81
2022/10/31 14:03:02;;;;;;;19.40;12.35;;;;;;;;;;5053072;28;20196;-81
2022/10/31 14:05:32;;;;;;;15.48;11.43;;;;;;;;;;5052521;28;20295;-81
2022/10/31 14:08:00;;;;;;;16.67;11.32;;;;;;;;;;5051673;28;20230;-82
2022/10/31 14:10:30;;;;;;;18.92;11.98;;;;;;;;;;5052705;28;20279;-81
2022/10/31 14:13:04;;;;;;;19.00;12.02;;;;;;;;;;5051578;28;20291;-80
2022/10/31 14:15:32;;;;;;;17.65;12.38;;;;;;;;;;5047896;28;20649;-80
2022/10/31 14:18:00;;;;;;;17.35;11.77;;;;;;;;;;5053643;28;20875;-81
2022/10/31 14:20:35;;;;;;;17.52;12.02;;;;;;;;;;5053116;28;20340;-83
2022/10/31 14:23:21;;;;;;;21.27;12.15;;;;;;;;;;5050625;28;20203;-80
2022/10/31 14:25:49;;;;;;;16.67;10.98;;;;;;;;;;5049639;28;20250;-81